createdAt,value
2019-05-02T00:01:05.572Z,14.10
2019-05-02T00:03:41.242Z,13.20
2019-05-02T00:06:09.498Z,12.78
2019-05-02T00:08:40.384Z,12.40
2019-05-02T00:11:12.245Z,14.18
2019-05-02T00:13:43.317Z,14.70
2019-05-02T00:16:15.386Z,15.15
2019-05-02T00:18:46.881Z,13.38
2019-05-02T00:21:17.255Z,15.32
2019-05-02T00:23:47.937Z,12.50
2019-05-02T00:26:18.138Z,18.00
2019-05-02T00:28:49.859Z,16.87
2019-05-02T00:31:21.687Z,18.07
2019-05-02T00:33:52.313Z,17.57
2019-05-02T00:36:22.935Z,20.00
2019-05-02T00:38:54.632Z,15.60
2019-05-02T00:41:26.073Z,24.37
2019-05-02T00:43:56.296Z,23.00
2019-05-02T00:46:30.262Z,21.02
2019-05-02T00:49:01.798Z,26.02
2019-05-02T00:51:31.625Z,31.05
2019-05-02T00:54:01.927Z,35.85
2019-05-02T00:56:32.160Z,31.48
2019-05-02T00:59:07.367Z,31.23
2019-05-02T01:01:39.604Z,27.82
2019-05-02T01:04:14.657Z,29.25
2019-05-02T01:06:49.380Z,32.78
2019-05-02T01:09:17.628Z,36.80
2019-05-02T01:11:48.256Z,31.12
2019-05-02T01:14:19.813Z,31.23
2019-05-02T01:16:54.331Z,27.93
2019-05-02T01:19:23.329Z,31.15
2019-05-02T01:21:54.626Z,28.83
2019-05-02T01:24:25.271Z,27.73
2019-05-02T01:27:04.567Z,27.50
2019-05-02T01:29:36.667Z,27.17
2019-05-02T01:32:17.678Z,26.90
2019-05-02T01:34:54.439Z,28.60
2019-05-02T01:37:29.501Z,32.70
2019-05-02T01:39:59.832Z,28.12
2019-05-02T01:42:39.668Z,31.35
2019-05-02T01:45:02.210Z,29.45
2019-05-02T01:47:34.062Z,28.95
2019-05-02T01:50:06.710Z,33.33
2019-05-02T01:52:37.304Z,31.27
2019-05-02T01:55:08.896Z,33.60
2019-05-02T01:57:39.974Z,31.00
2019-05-02T02:00:13.450Z,30.68
2019-05-02T02:02:44.100Z,34.18
2019-05-02T02:05:14.950Z,26.40
2019-05-02T02:07:45.598Z,26.80
2019-05-02T02:10:19.851Z,30.37
2019-05-02T02:13:02.862Z,27.07
2019-05-02T02:15:25.194Z,31.90
2019-05-02T02:17:53.404Z,28.85
2019-05-02T02:20:28.282Z,28.07
2019-05-02T02:23:03.432Z,26.87
2019-05-02T02:25:52.208Z,28.87
2019-05-02T02:28:22.807Z,30.32
2019-05-02T02:30:58.057Z,29.92
2019-05-02T02:33:25.427Z,28.40
2019-05-02T02:35:56.272Z,28.52
2019-05-02T02:38:33.626Z,31.77
2019-05-02T02:40:59.879Z,29.15
2019-05-02T02:43:34.870Z,30.23
2019-05-02T02:46:10.384Z,32.30
2019-05-02T02:48:42.675Z,33.85
2019-05-02T02:51:22.239Z,28.73
2019-05-02T02:53:45.176Z,29.20
2019-05-02T02:56:15.832Z,32.00
2019-05-02T02:58:48.092Z,30.88
2019-05-02T03:01:27.458Z,31.07
2019-05-02T03:03:51.062Z,36.65
2019-05-02T03:06:21.734Z,28.47
2019-05-02T03:08:52.375Z,35.58
2019-05-02T03:11:25.585Z,32.13
2019-05-02T03:14:07.561Z,33.63
2019-05-02T03:16:46.051Z,40.83
2019-05-02T03:19:07.144Z,36.80
2019-05-02T03:21:40.029Z,40.03
2019-05-02T03:24:10.579Z,37.53
2019-05-02T03:26:40.834Z,41.23
2019-05-02T03:29:12.278Z,38.28
2019-05-02T03:31:42.989Z,42.25
2019-05-02T03:34:13.696Z,38.48
2019-05-02T03:36:44.498Z,43.20
2019-05-02T03:39:17.420Z,42.03
2019-05-02T03:41:47.277Z,43.70
2019-05-02T03:44:25.138Z,45.23
2019-05-02T03:46:54.166Z,43.05
2019-05-02T03:49:21.923Z,39.92
2019-05-02T03:51:56.075Z,45.40
2019-05-02T03:54:24.826Z,44.50
2019-05-02T03:56:55.495Z,45.25
2019-05-02T03:59:37.716Z,41.68
2019-05-02T04:01:59.445Z,44.48
2019-05-02T04:04:30.491Z,50.33
2019-05-02T04:07:01.540Z,55.88
2019-05-02T04:09:42.462Z,52.60
2019-05-02T04:12:18.531Z,52.70
2019-05-02T04:14:41.050Z,56.60
2019-05-02T04:17:12.206Z,55.43
2019-05-02T04:19:42.876Z,55.55
2019-05-02T04:22:15.227Z,56.63
2019-05-02T04:24:54.194Z,54.40
2019-05-02T04:27:19.799Z,49.88
2019-05-02T04:29:51.271Z,46.83
2019-05-02T04:32:21.479Z,51.18
2019-05-02T04:34:55.074Z,48.83
2019-05-02T04:37:24.188Z,49.00
2019-05-02T04:39:59.180Z,53.15
2019-05-02T04:42:29.132Z,49.95
2019-05-02T04:45:14.058Z,52.43
2019-05-02T04:47:30.781Z,42.90
2019-05-02T04:50:07.647Z,44.10
2019-05-02T04:52:38.498Z,45.28
2019-05-02T04:55:19.924Z,44.03
2019-05-02T04:57:47.087Z,42.58
2019-05-02T05:00:13.693Z,42.08
2019-05-02T05:02:43.932Z,37.75
2019-05-02T05:05:17.194Z,35.68
2019-05-02T05:07:49.304Z,37.98
2019-05-02T05:10:18.732Z,34.58
2019-05-02T05:12:49.311Z,31.27
2019-05-02T05:15:35.936Z,32.40
2019-05-02T05:17:51.534Z,34.03
2019-05-02T05:20:22.105Z,34.65
2019-05-02T05:22:52.414Z,31.90
2019-05-02T05:25:42.150Z,32.30
2019-05-02T05:28:12.363Z,26.75
2019-05-02T05:30:45.438Z,36.03
2019-05-02T05:33:14.875Z,29.35
2019-05-02T05:35:48.772Z,30.68
2019-05-02T05:38:18.256Z,25.97
2019-05-02T05:40:50.310Z,29.63
2019-05-02T05:43:21.286Z,27.35
2019-05-02T05:45:56.418Z,23.18
2019-05-02T05:48:24.276Z,27.27
2019-05-02T05:50:54.598Z,29.37
2019-05-02T05:53:24.811Z,25.68
2019-05-02T05:55:58.989Z,30.95
2019-05-02T05:58:28.942Z,28.53
2019-05-02T06:00:59.976Z,28.12
2019-05-02T06:03:34.092Z,25.55
2019-05-02T06:06:02.705Z,28.83
2019-05-02T06:08:33.337Z,24.23
2019-05-02T06:11:03.689Z,26.33
2019-05-02T06:13:34.383Z,26.30
2019-05-02T06:16:05.013Z,29.95
2019-05-02T06:18:36.516Z,31.17
2019-05-02T06:21:08.840Z,25.57
2019-05-02T06:23:41.551Z,34.25
2019-05-02T06:26:13.478Z,28.77
2019-05-02T06:28:44.368Z,28.42
2019-05-02T06:31:17.067Z,26.55
2019-05-02T06:33:47.051Z,23.87
2019-05-02T06:36:17.610Z,26.27
2019-05-02T06:38:52.267Z,23.40
2019-05-02T06:41:22.183Z,24.20
2019-05-02T06:43:52.892Z,25.50
2019-05-02T06:46:27.477Z,26.55
2019-05-02T06:48:55.554Z,25.97
2019-05-02T06:51:25.902Z,23.45
2019-05-02T06:53:57.116Z,26.12
2019-05-02T06:56:27.774Z,25.17
2019-05-02T06:59:01.106Z,27.98
2019-05-02T07:01:32.515Z,27.85
2019-05-02T07:04:04.351Z,26.57
2019-05-02T07:06:55.923Z,27.48
2019-05-02T07:09:07.827Z,24.77
2019-05-02T07:11:40.628Z,28.85
2019-05-02T07:14:13.540Z,23.10
2019-05-02T07:16:44.428Z,21.05
2019-05-02T07:19:16.675Z,19.23
2019-05-02T07:21:47.411Z,23.30
2019-05-02T07:24:17.714Z,20.77
2019-05-02T07:26:52.057Z,17.67
2019-05-02T07:29:21.805Z,16.57
2019-05-02T07:31:53.631Z,19.80
2019-05-02T07:34:24.898Z,18.75
2019-05-02T07:36:56.454Z,18.23
2019-05-02T07:39:27.085Z,21.35
2019-05-02T07:42:00.656Z,15.50
2019-05-02T07:44:32.566Z,14.83
2019-05-02T07:47:02.959Z,19.05
2019-05-02T07:49:34.581Z,20.72
2019-05-02T07:52:05.138Z,18.87
2019-05-02T07:54:35.353Z,22.37
2019-05-02T07:57:06.083Z,18.12
2019-05-02T07:59:36.722Z,33.25
2019-05-02T08:02:07.226Z,17.40
2019-05-02T08:04:37.751Z,21.93
2019-05-02T08:07:08.133Z,24.82
2019-05-02T08:09:42.125Z,25.17
2019-05-02T08:12:13.275Z,14.63
2019-05-02T08:14:44.039Z,13.13
2019-05-02T08:17:17.220Z,15.28
2019-05-02T08:19:47.040Z,18.80
2019-05-02T08:22:19.013Z,14.63
2019-05-02T08:24:49.521Z,14.78
2019-05-02T08:27:22.871Z,13.93
2019-05-02T08:29:53.475Z,14.68
2019-05-02T08:32:24.098Z,16.25
2019-05-02T08:34:54.387Z,14.28
2019-05-02T08:37:25.400Z,14.30
2019-05-02T08:39:56.050Z,14.35
2019-05-02T08:42:27.657Z,19.50
2019-05-02T08:45:00.999Z,15.08
2019-05-02T08:47:31.052Z,16.65
2019-05-02T08:50:01.770Z,16.55
2019-05-02T08:52:36.875Z,13.95
2019-05-02T08:55:09.744Z,18.10
2019-05-02T09:00:11.666Z,17.67
2019-05-02T09:02:42.402Z,20.10
2019-05-02T09:05:13.069Z,20.23
2019-05-02T09:07:43.711Z,13.15
2019-05-02T09:10:15.816Z,15.25
2019-05-02T09:12:46.157Z,14.03
2019-05-02T09:15:17.418Z,17.40
2019-05-02T09:17:53.042Z,14.33
2019-05-02T09:20:21.474Z,16.97
2019-05-02T09:22:55.925Z,19.85
2019-05-02T09:25:24.947Z,15.40
2019-05-02T09:27:55.256Z,17.82
2019-05-02T09:30:26.047Z,15.98
2019-05-02T09:32:57.043Z,15.05
2019-05-02T09:35:28.695Z,17.05
2019-05-02T09:37:58.937Z,14.63
2019-05-02T09:40:29.156Z,15.55
2019-05-02T09:43:02.116Z,18.55
2019-05-02T09:45:37.315Z,18.07
2019-05-02T09:48:08.170Z,22.82
2019-05-02T09:50:39.411Z,17.30
2019-05-02T09:53:13.259Z,17.55
2019-05-02T09:55:49.575Z,17.85
2019-05-02T09:58:19.685Z,18.73
2019-05-02T10:00:52.490Z,16.50
2019-05-02T10:03:23.180Z,17.07
2019-05-02T10:05:54.092Z,21.77
2019-05-02T10:08:24.419Z,16.12
2019-05-02T10:11:04.503Z,14.95
2019-05-02T10:13:34.729Z,16.48
2019-05-02T10:16:05.225Z,18.10
2019-05-02T10:18:35.458Z,18.62
2019-05-02T10:21:07.801Z,16.45
2019-05-02T10:23:38.281Z,20.15
2019-05-02T10:26:12.973Z,20.25
2019-05-02T10:28:49.308Z,19.73
2019-05-02T10:31:18.130Z,20.40
2019-05-02T10:33:48.423Z,19.87
2019-05-02T10:36:19.912Z,19.17
2019-05-02T10:38:59.173Z,20.60
2019-05-02T10:41:39.188Z,16.45
2019-05-02T10:44:14.233Z,17.75
2019-05-02T10:46:52.186Z,19.75
2019-05-02T10:49:24.069Z,17.90
2019-05-02T10:51:57.594Z,18.57
2019-05-02T10:54:33.690Z,23.53
2019-05-02T10:57:02.297Z,21.30
2019-05-02T10:59:33.059Z,19.07
2019-05-02T11:02:05.146Z,17.52
2019-05-02T11:04:37.433Z,16.93
2019-05-02T11:07:07.738Z,24.65
2019-05-02T11:09:38.242Z,18.73
2019-05-02T11:12:11.855Z,18.90
2019-05-02T11:14:52.915Z,20.48
2019-05-02T11:17:36.893Z,14.63
2019-05-02T11:20:09.191Z,15.32
2019-05-02T11:22:39.592Z,17.17
2019-05-02T11:25:12.088Z,14.70
2019-05-02T11:27:42.458Z,21.82
2019-05-02T11:30:16.892Z,25.00
2019-05-02T11:32:46.142Z,18.47
2019-05-02T11:35:16.384Z,21.50
2019-05-02T11:37:46.999Z,18.32
2019-05-02T11:40:17.359Z,18.48
2019-05-02T11:42:47.965Z,18.17
2019-05-02T11:45:18.341Z,17.52
2019-05-02T11:47:49.037Z,24.63
2019-05-02T11:50:19.704Z,21.42
2019-05-02T11:52:52.291Z,20.68
2019-05-02T11:55:24.705Z,27.37
2019-05-02T11:57:54.537Z,26.15
2019-05-02T12:00:25.201Z,25.25
2019-05-02T12:03:12.744Z,17.50
2019-05-02T12:05:44.014Z,23.30
2019-05-02T12:08:14.500Z,30.95
2019-05-02T12:10:45.131Z,46.75
2019-05-02T12:13:16.142Z,40.23
2019-05-02T12:15:47.011Z,31.75
2019-05-02T12:18:20.369Z,26.57
2019-05-02T12:20:53.545Z,25.32
2019-05-02T12:23:24.199Z,18.23
2019-05-02T12:25:55.124Z,27.15
2019-05-02T12:28:26.030Z,18.70
2019-05-02T12:30:56.635Z,30.27
2019-05-02T12:33:28.515Z,26.37
2019-05-02T12:35:59.578Z,28.20
2019-05-02T12:38:32.340Z,27.20
2019-05-02T12:41:02.680Z,22.07
2019-05-02T12:43:33.132Z,25.68
2019-05-02T12:46:04.223Z,17.50
2019-05-02T12:48:34.611Z,24.40
2019-05-02T12:51:04.989Z,30.68
2019-05-02T12:53:35.244Z,23.07
2019-05-02T12:56:06.081Z,23.73
2019-05-02T12:58:36.393Z,19.50
2019-05-02T13:01:06.610Z,25.17
2019-05-02T13:03:56.729Z,20.32
2019-05-02T13:06:27.291Z,31.00
2019-05-02T13:08:57.803Z,24.80
2019-05-02T13:11:46.101Z,37.65
2019-05-02T13:14:19.917Z,21.45
2019-05-02T13:16:53.633Z,24.95
2019-05-02T13:19:36.805Z,20.35
2019-05-02T13:21:59.700Z,18.75
2019-05-02T13:24:34.880Z,20.20
2019-05-02T13:27:07.615Z,18.73
2019-05-02T13:29:38.605Z,19.77
2019-05-02T13:32:18.687Z,19.82
2019-05-02T13:34:56.880Z,19.87
2019-05-02T13:37:27.215Z,26.23
2019-05-02T13:40:02.695Z,23.60
2019-05-02T13:42:35.112Z,24.57
2019-05-02T13:45:15.593Z,23.00
2019-05-02T13:47:46.262Z,26.77
2019-05-02T13:50:17.014Z,21.52
2019-05-02T13:52:53.148Z,28.52
2019-05-02T13:55:20.805Z,22.27
2019-05-02T13:57:52.836Z,18.90
2019-05-02T14:00:34.653Z,20.20
2019-05-02T14:03:05.200Z,17.12
2019-05-02T14:05:42.180Z,27.17
2019-05-02T14:08:35.400Z,18.20
2019-05-02T14:11:08.564Z,17.25
2019-05-02T14:13:42.495Z,20.65
2019-05-02T14:16:12.352Z,19.70
2019-05-02T14:18:42.578Z,15.32
2019-05-02T14:21:13.162Z,18.87
2019-05-02T14:23:43.494Z,21.02
2019-05-02T14:26:26.919Z,14.95
2019-05-02T14:28:46.144Z,18.23
2019-05-02T14:31:16.798Z,22.13
2019-05-02T14:33:48.733Z,21.80
2019-05-02T14:36:19.360Z,25.52
2019-05-02T14:38:49.758Z,16.85
2019-05-02T14:41:22.194Z,19.57
2019-05-02T14:43:54.023Z,14.45
2019-05-02T14:46:34.305Z,14.75
2019-05-02T14:48:58.052Z,20.75
2019-05-02T14:51:28.629Z,22.77
2019-05-02T14:54:03.582Z,20.77
2019-05-02T14:56:48.716Z,20.55
2019-05-02T14:59:20.046Z,16.00
2019-05-02T15:01:52.873Z,21.70
2019-05-02T15:04:23.419Z,23.50
2019-05-02T15:06:54.519Z,20.82
2019-05-02T15:09:26.757Z,20.35
2019-05-02T15:12:02.926Z,22.65
2019-05-02T15:14:34.495Z,18.62
2019-05-02T15:17:07.654Z,17.10
2019-05-02T15:19:38.102Z,19.32
2019-05-02T15:22:09.049Z,18.75
2019-05-02T15:24:39.432Z,16.77
2019-05-02T15:27:13.344Z,17.35
2019-05-02T15:29:42.120Z,23.67
2019-05-02T15:32:14.948Z,17.48
2019-05-02T15:34:57.460Z,20.72
2019-05-02T15:37:28.660Z,18.77
2019-05-02T15:42:32.294Z,21.80
2019-05-02T15:45:05.604Z,22.82
2019-05-02T15:47:37.006Z,25.95
2019-05-02T15:50:08.033Z,22.73
2019-05-02T15:52:41.949Z,14.50
2019-05-02T15:55:12.542Z,18.77
2019-05-02T15:57:45.884Z,23.40
2019-05-02T16:00:23.008Z,21.77
2019-05-02T16:02:51.713Z,17.55
2019-05-02T16:05:23.850Z,18.20
2019-05-02T16:08:05.280Z,15.63
2019-05-02T16:10:26.765Z,16.07
2019-05-02T16:12:59.548Z,19.90
2019-05-02T16:15:29.610Z,19.57
2019-05-02T16:18:01.929Z,16.25
2019-05-02T16:20:47.271Z,17.40
2019-05-02T16:23:19.493Z,22.37
2019-05-02T16:25:48.730Z,19.23
2019-05-02T16:28:19.033Z,22.07
2019-05-02T16:30:52.585Z,18.52
2019-05-02T16:33:22.955Z,26.30
2019-05-02T16:35:54.633Z,21.75
2019-05-02T16:38:26.851Z,22.75
2019-05-02T16:41:01.689Z,21.80
2019-05-02T16:43:32.842Z,15.48
2019-05-02T16:46:06.623Z,17.70
2019-05-02T16:48:37.608Z,18.50
2019-05-02T16:51:27.663Z,15.93
2019-05-02T16:53:42.641Z,20.00
2019-05-02T16:56:14.250Z,39.33
2019-05-02T16:58:47.061Z,23.92
2019-05-02T17:01:26.620Z,23.42
2019-05-02T17:03:50.140Z,17.37
2019-05-02T17:06:25.840Z,26.45
2019-05-02T17:08:58.421Z,40.28
2019-05-02T17:11:34.497Z,15.13
2019-05-02T17:14:07.017Z,31.05
2019-05-02T17:16:35.077Z,14.00
2019-05-02T17:19:05.860Z,25.08
2019-05-02T17:21:52.435Z,29.45
2019-05-02T17:24:08.512Z,15.50
2019-05-02T17:26:39.274Z,15.15
2019-05-02T17:29:11.842Z,12.88
2019-05-02T17:31:42.682Z,12.33
2019-05-02T17:34:14.886Z,12.63
2019-05-02T17:36:45.831Z,10.08
2019-05-02T17:39:18.754Z,14.95
2019-05-02T17:41:48.924Z,12.95
2019-05-02T17:44:22.130Z,8.98
2019-05-02T17:46:58.203Z,10.25
2019-05-02T17:49:34.890Z,9.78
2019-05-02T17:52:19.118Z,15.72
2019-05-02T17:54:46.894Z,11.00
2019-05-02T17:57:17.097Z,9.40
2019-05-02T17:59:47.399Z,9.18
2019-05-02T18:02:17.970Z,12.15
2019-05-02T18:04:52.041Z,9.53
2019-05-02T18:07:25.036Z,10.95
2019-05-02T18:09:52.727Z,11.95
2019-05-02T18:12:22.925Z,16.35
2019-05-02T18:14:58.963Z,10.50
2019-05-02T18:17:31.783Z,11.33
2019-05-02T18:20:05.830Z,15.35
2019-05-02T18:22:34.932Z,15.88
2019-05-02T18:25:07.635Z,10.95
2019-05-02T18:27:38.210Z,10.90
2019-05-02T18:30:09.789Z,14.65
2019-05-02T18:32:42.017Z,12.30
2019-05-02T18:35:13.157Z,10.50
2019-05-02T18:37:46.724Z,14.45
2019-05-02T18:40:20.142Z,16.93
2019-05-02T18:42:48.138Z,14.65
2019-05-02T18:45:28.475Z,13.78
2019-05-02T18:48:02.170Z,14.60
2019-05-02T18:50:36.755Z,14.63
2019-05-02T18:55:38.085Z,14.95
2019-05-02T18:58:09.226Z,13.53
2019-05-02T19:00:42.055Z,15.85
2019-05-02T19:03:17.083Z,13.85
2019-05-02T19:05:46.693Z,14.58
2019-05-02T19:08:30.623Z,19.15
2019-05-02T19:11:05.422Z,15.98
2019-05-02T19:13:24.692Z,14.20
2019-05-02T19:15:54.980Z,16.37
2019-05-02T19:18:25.554Z,13.60
2019-05-02T19:20:59.354Z,13.05
2019-05-02T19:23:31.875Z,14.83
2019-05-02T19:26:10.037Z,14.70
2019-05-02T19:28:42.987Z,11.65
2019-05-02T19:31:14.700Z,15.03
2019-05-02T19:33:44.998Z,13.38
2019-05-02T19:36:16.359Z,19.10
2019-05-02T19:38:47.504Z,16.25
2019-05-02T19:41:17.794Z,16.55
2019-05-02T19:43:49.752Z,15.78
2019-05-02T19:46:24.474Z,15.40
2019-05-02T19:48:55.256Z,12.90
2019-05-02T19:51:28.097Z,15.60
2019-05-02T19:53:59.614Z,17.70
2019-05-02T19:56:33.376Z,15.85
2019-05-02T19:59:03.959Z,16.07
2019-05-02T20:01:36.160Z,14.47
2019-05-02T20:04:09.490Z,17.90
2019-05-02T20:06:41.884Z,13.32
2019-05-02T20:09:12.444Z,18.23
2019-05-02T20:11:42.733Z,14.13
2019-05-02T20:14:13.810Z,19.02
2019-05-02T20:16:49.219Z,14.93
2019-05-02T20:19:23.123Z,16.97
2019-05-02T20:22:01.654Z,20.52
2019-05-02T20:24:33.610Z,21.48
2019-05-02T20:27:04.933Z,18.57
2019-05-02T20:29:35.215Z,25.45
2019-05-02T20:32:05.804Z,22.58
2019-05-02T20:34:37.084Z,23.38
2019-05-02T20:37:07.554Z,22.20
2019-05-02T20:39:37.879Z,21.45
2019-05-02T20:42:08.509Z,19.52
2019-05-02T20:44:39.218Z,22.90
2019-05-02T20:47:13.459Z,22.75
2019-05-02T20:49:47.865Z,20.62
2019-05-02T20:52:18.562Z,28.60
2019-05-02T20:54:49.674Z,19.20
2019-05-02T20:57:19.955Z,18.85
2019-05-02T20:59:52.496Z,19.17
2019-05-02T21:02:22.675Z,20.48
2019-05-02T21:04:52.918Z,15.48
2019-05-02T21:07:34.313Z,19.95
2019-05-02T21:10:13.927Z,19.02
2019-05-02T21:12:44.260Z,19.57
2019-05-02T21:15:14.603Z,15.10
2019-05-02T21:17:45.419Z,16.17
2019-05-02T21:20:16.102Z,15.58
2019-05-02T21:22:46.857Z,21.60
2019-05-02T21:25:17.645Z,24.50
2019-05-02T21:27:48.696Z,17.52
2019-05-02T21:30:22.015Z,20.60
2019-05-02T21:32:52.247Z,29.55
2019-05-02T21:35:22.472Z,18.95
2019-05-02T21:37:53.032Z,17.77
2019-05-02T21:40:25.773Z,17.85
2019-05-02T21:42:56.156Z,21.45
2019-05-02T21:45:26.471Z,19.27
2019-05-02T21:47:57.132Z,21.48
2019-05-02T21:50:33.710Z,24.55
2019-05-02T21:53:17.906Z,20.20
2019-05-02T21:55:56.209Z,18.42
2019-05-02T21:58:26.512Z,23.42
2019-05-02T22:01:12.956Z,19.70
2019-05-02T22:03:43.150Z,27.52
2019-05-02T22:06:13.761Z,29.87
2019-05-02T22:08:44.460Z,27.05
2019-05-02T22:11:14.934Z,24.60
2019-05-02T22:13:45.576Z,21.93
2019-05-02T22:16:16.271Z,26.25
2019-05-02T22:18:47.607Z,27.20
2019-05-02T22:21:18.198Z,22.37
2019-05-02T22:23:48.908Z,22.35
2019-05-02T22:26:19.227Z,23.45
2019-05-02T22:28:49.901Z,26.40
2019-05-02T22:31:22.741Z,22.10
2019-05-02T22:33:53.376Z,21.20
2019-05-02T22:36:23.891Z,19.95
2019-05-02T22:38:56.138Z,22.73
2019-05-02T22:41:26.824Z,19.27
2019-05-02T22:43:57.420Z,23.40
2019-05-02T22:46:43.131Z,22.13
2019-05-02T22:49:16.475Z,21.52
2019-05-02T22:51:46.844Z,24.40
2019-05-02T22:54:26.601Z,25.12
2019-05-02T22:56:49.408Z,21.73
2019-05-02T22:59:19.782Z,20.88
2019-05-02T23:01:52.811Z,21.02
2019-05-02T23:04:23.663Z,21.17
2019-05-02T23:06:54.527Z,20.85
2019-05-02T23:09:25.326Z,20.62
2019-05-02T23:11:56.023Z,24.63
2019-05-02T23:14:26.508Z,23.15
2019-05-02T23:16:56.725Z,23.32
2019-05-02T23:19:26.960Z,24.15
2019-05-02T23:21:57.509Z,22.32
2019-05-02T23:24:37.001Z,25.32
2019-05-02T23:27:03.359Z,20.80
2019-05-02T23:29:33.993Z,24.18
2019-05-02T23:32:04.633Z,25.60
2019-05-02T23:34:34.937Z,21.60
2019-05-02T23:37:07.276Z,23.95
2019-05-02T23:39:37.914Z,23.90
2019-05-02T23:42:08.194Z,24.10
2019-05-02T23:44:38.898Z,21.90
2019-05-02T23:47:09.275Z,26.55
2019-05-02T23:49:39.829Z,22.82
2019-05-02T23:52:11.756Z,23.90
2019-05-02T23:54:50.084Z,22.10
2019-05-02T23:57:14.500Z,23.18
2019-05-02T23:59:45.707Z,22.90
